< < Back
Terminal Aerodrome Forecast


Current Version              Previous Versions:   1  2  3  4  5  6  7  8  9  

Terminal Aerodrome Forecast

815
FTUS42 KJAX 281404 AAB
TAFJAX
TAF AMD
KJAX 281404Z 2814/2912 06008KT P6SM -SHRA SCT025 OVC040
     FM281600 07011G18KT P6SM VCSH SCT030 BKN060 OVC200
     FM290300 10008KT P6SM VCSH SCT020 SCT060 BKN200 PROB30
      2906/2912 3SM +TSRA BR BKN025CB OVC100=

Latest METAR

907
SAUS80 KWBC 281600
MTRJAX
METAR KJAX 281556Z 07010KT 10SM BKN032 OVC045 19/15 A2988 RMK AO2 RAE09
SLP118 P0000 T01940150


USA.gov is the U.S. government's official web portal to all federal, state and local government web resources and services.